createdAt,value
2023-03-02T00:02:38.652Z,47.4
2023-03-02T00:07:56.915Z,48.2
2023-03-02T00:13:15.683Z,47.6
2023-03-02T00:18:33.873Z,47.2
2023-03-02T00:23:52.364Z,47.3
2023-03-02T00:29:10.837Z,47.2
2023-03-02T00:34:29.075Z,47
2023-03-02T00:39:47.564Z,46.7
2023-03-02T00:45:05.813Z,46.9
2023-03-02T00:50:24.378Z,46.8
2023-03-02T00:55:42.303Z,46.9
2023-03-02T01:01:00.500Z,48.1
2023-03-02T01:06:18.732Z,47.2
2023-03-02T01:11:36.958Z,47.7
2023-03-02T01:16:55.166Z,47.8
2023-03-02T01:22:13.480Z,47.2
2023-03-02T01:27:31.978Z,47.8
2023-03-02T01:32:50.493Z,47.4
2023-03-02T01:38:09.066Z,48
2023-03-02T01:43:27.356Z,47
2023-03-02T01:48:46.125Z,48.2
2023-03-02T01:54:04.379Z,48.1
2023-03-02T01:59:22.286Z,47.7
2023-03-02T02:04:40.763Z,47.4
2023-03-02T02:09:59.362Z,48.2
2023-03-02T02:15:17.565Z,48
2023-03-02T02:20:35.987Z,47
2023-03-02T02:25:54.396Z,47.7
2023-03-02T02:31:12.563Z,47.3
2023-03-02T02:36:32.727Z,47.5
2023-03-02T02:41:51.217Z,47
2023-03-02T02:47:09.727Z,47.4
2023-03-02T02:52:27.922Z,48
2023-03-02T02:57:46.483Z,48
2023-03-02T03:03:04.390Z,48.3
2023-03-02T03:08:22.881Z,48.2
2023-03-02T03:13:41.598Z,47.8
2023-03-02T03:19:00.083Z,47.5
2023-03-02T03:24:18.556Z,48
2023-03-02T03:29:37.116Z,48.2
2023-03-02T03:34:55.046Z,48.2
2023-03-02T03:40:13.557Z,47.3
2023-03-02T03:45:31.799Z,47.9
2023-03-02T03:50:50.582Z,47.3
2023-03-02T03:56:09.042Z,47.2
2023-03-02T04:01:27.728Z,47.6
2023-03-02T04:06:46.024Z,47.9
2023-03-02T04:12:04.217Z,47.5
2023-03-02T04:17:23.418Z,48.2
2023-03-02T04:22:41.597Z,48.2
2023-03-02T04:27:59.506Z,47.4
2023-03-02T04:33:18.177Z,47.5
2023-03-02T04:38:36.127Z,48.4
2023-03-02T04:43:54.352Z,48.5
2023-03-02T04:49:12.583Z,48.2
2023-03-02T04:54:30.769Z,47.8
2023-03-02T04:59:49.273Z,47.5
2023-03-02T05:05:07.535Z,47.7
2023-03-02T05:10:26.272Z,47
2023-03-02T05:15:45.255Z,46.9
2023-03-02T05:21:03.856Z,47.1
2023-03-02T05:26:22.052Z,47.4
2023-03-02T05:31:40.725Z,46.5
2023-03-02T05:36:59.368Z,47.3
2023-03-02T05:42:18.138Z,47.1
2023-03-02T05:47:36.338Z,47
2023-03-02T05:52:54.581Z,47.4
2023-03-02T05:58:13.062Z,46.7
2023-03-02T06:03:31.150Z,46.4
2023-03-02T06:08:49.287Z,47.1
2023-03-02T06:14:08.155Z,46.3
2023-03-02T06:19:26.912Z,45.9
2023-03-02T06:24:45.693Z,46.5
2023-03-02T06:30:04.239Z,45.7
2023-03-02T06:35:23.244Z,45.8
2023-03-02T06:40:41.619Z,46.2
2023-03-02T06:45:59.764Z,45.5
2023-03-02T06:51:18.259Z,45.9
2023-03-02T06:56:20.894Z,45.4
2023-03-02T07:01:39.366Z,45.8
2023-03-02T07:06:57.970Z,45.5
2023-03-02T07:12:16.943Z,46.1
2023-03-02T07:17:35.116Z,45.5
2023-03-02T07:22:53.955Z,46.3
2023-03-02T07:28:12.745Z,46.1
2023-03-02T07:33:30.947Z,46
2023-03-02T07:38:49.528Z,46.1
2023-03-02T07:44:08.076Z,46
2023-03-02T07:49:26.432Z,45.2
2023-03-02T07:54:45.172Z,45.3
2023-03-02T08:00:03.934Z,45.5
2023-03-02T08:05:22.569Z,45.8
2023-03-02T08:10:42.159Z,45.5
2023-03-02T08:16:01.297Z,45.2
2023-03-02T08:21:19.538Z,45
2023-03-02T08:26:38.291Z,46.1
2023-03-02T08:31:41.463Z,45.9
2023-03-02T08:36:59.862Z,46
2023-03-02T08:42:18.103Z,45.2
2023-03-02T08:47:36.550Z,45.9
2023-03-02T08:52:54.466Z,45.8
2023-03-02T08:58:13.071Z,45.8
2023-03-02T09:03:31.617Z,45.7
2023-03-02T09:08:50.092Z,45.8
2023-03-02T09:14:08.593Z,45.5
2023-03-02T09:19:26.910Z,45
2023-03-02T09:24:45.081Z,45.4
2023-03-02T09:30:03.021Z,45
2023-03-02T09:35:22.177Z,45.8
2023-03-02T09:40:40.718Z,45.1
2023-03-02T09:45:59.258Z,45
2023-03-02T09:51:17.906Z,45.7
2023-03-02T09:56:36.061Z,45
2023-03-02T10:01:54.555Z,44.8
2023-03-02T10:07:12.824Z,44.9
2023-03-02T10:12:31.280Z,45.7
2023-03-02T10:17:49.869Z,45
2023-03-02T10:23:08.623Z,45.5
2023-03-02T10:28:29.403Z,44.9
2023-03-02T10:33:47.344Z,45.5
2023-03-02T10:39:06.074Z,45.1
2023-03-02T10:44:24.580Z,45
2023-03-02T10:49:43.465Z,45.4
2023-03-02T10:55:01.779Z,44.6
2023-03-02T11:00:20.596Z,45.2
2023-03-02T11:05:39.130Z,44.9
2023-03-02T11:11:03.330Z,44.8
2023-03-02T11:16:24.781Z,45.2
2023-03-02T11:21:42.737Z,45.1
2023-03-02T11:27:05.847Z,44.5
2023-03-02T11:32:27.332Z,45.4
2023-03-02T11:37:49.062Z,45
2023-03-02T11:43:07.611Z,44.2
2023-03-02T11:48:25.702Z,44.3
2023-03-02T11:53:46.742Z,44.5
2023-03-02T11:59:06.468Z,45.1
2023-03-02T12:04:24.937Z,44.2
2023-03-02T12:09:44.305Z,44.6
2023-03-02T12:15:04.440Z,44.9
2023-03-02T12:20:43.885Z,45.1
2023-03-02T12:26:02.079Z,44.2
2023-03-02T12:31:20.958Z,44.4
2023-03-02T12:36:43.630Z,45.1
2023-03-02T12:42:08.844Z,45.1
2023-03-02T12:47:31.673Z,44.1
2023-03-02T12:52:53.253Z,44.9
2023-03-02T12:58:21.289Z,44.8
2023-03-02T13:03:39.630Z,45
2023-03-02T13:08:58.325Z,44.1
2023-03-02T13:14:20.086Z,44.2
2023-03-02T13:19:38.348Z,44.1
2023-03-02T13:24:56.252Z,44.1
2023-03-02T13:30:15.176Z,44.8
2023-03-02T13:35:33.552Z,44.5
2023-03-02T13:40:52.048Z,44.6
2023-03-02T13:46:10.829Z,44.2
2023-03-02T13:51:28.919Z,44.2
2023-03-02T13:56:47.438Z,44.2
2023-03-02T14:02:05.708Z,44.5
2023-03-02T14:07:24.408Z,44
2023-03-02T14:12:42.881Z,44.1
2023-03-02T14:18:01.106Z,43.8
2023-03-02T14:23:19.699Z,43.6
2023-03-02T14:28:38.505Z,44.6
2023-03-02T14:33:56.544Z,44.1
2023-03-02T14:39:15.140Z,44.9
2023-03-02T14:44:33.487Z,44.5
2023-03-02T14:49:51.688Z,45.1
2023-03-02T14:55:10.601Z,44.7
2023-03-02T15:00:29.722Z,44.5
2023-03-02T15:06:02.631Z,44.5
2023-03-02T15:11:21.487Z,44.3
2023-03-02T15:16:39.942Z,45.1
2023-03-02T15:21:58.136Z,44.3
2023-03-02T15:27:17.032Z,45.1
2023-03-02T15:32:19.714Z,44.4
2023-03-02T15:37:38.174Z,45.2
2023-03-02T15:42:58.127Z,45.2
2023-03-02T15:48:16.835Z,45.1
2023-03-02T15:53:39.066Z,45.1
2023-03-02T15:58:57.026Z,44.7
2023-03-02T16:04:08.951Z,44.3
2023-03-02T16:09:27.159Z,44.7
2023-03-02T16:14:35.277Z,45.1
2023-03-02T16:19:53.766Z,44.8
2023-03-02T16:25:12.642Z,44.3
2023-03-02T16:30:30.625Z,45.1
2023-03-02T16:35:50.684Z,45.2
2023-03-02T16:41:08.713Z,45.2
2023-03-02T16:46:27.449Z,45.5
2023-03-02T16:51:45.934Z,45.2
2023-03-02T16:57:04.779Z,45.2
2023-03-02T17:02:26.633Z,45
2023-03-02T17:07:45.635Z,44.2
2023-03-02T17:13:03.807Z,44.9
2023-03-02T17:18:23.400Z,44.8
2023-03-02T17:23:41.544Z,44.7
2023-03-02T17:28:59.501Z,44.7
2023-03-02T17:34:18.553Z,44.4
2023-03-02T17:39:37.053Z,43.9
2023-03-02T17:44:55.287Z,45
2023-03-02T17:50:15.188Z,44.6
2023-03-02T17:55:33.393Z,40.7
2023-03-02T18:00:54.849Z,43.7
2023-03-02T18:06:13.796Z,43.7
2023-03-02T18:11:32.658Z,43.5
2023-03-02T18:16:51.068Z,44.9
2023-03-02T18:22:09.893Z,45.6
2023-03-02T18:27:28.491Z,45.4
2023-03-02T18:32:46.710Z,46.1
2023-03-02T18:37:49.999Z,46.4
2023-03-02T18:43:08.520Z,45.7
2023-03-02T18:48:27.536Z,46
2023-03-02T18:53:45.495Z,45.8
2023-03-02T18:59:04.394Z,46.4
2023-03-02T19:04:22.831Z,46.2
2023-03-02T19:09:41.562Z,46.1
2023-03-02T19:15:00.264Z,45.4
2023-03-02T19:20:18.769Z,46.2
2023-03-02T19:25:21.819Z,45.3
2023-03-02T19:30:40.277Z,45.2
2023-03-02T19:35:58.681Z,45.8
2023-03-02T19:41:17.148Z,45.5
2023-03-02T19:46:35.682Z,45.1
2023-03-02T19:51:53.884Z,44
2023-03-02T19:57:11.965Z,44.2
2023-03-02T20:02:30.409Z,44.4
2023-03-02T20:07:48.709Z,44.9
2023-03-02T20:13:07.472Z,45.2
2023-03-02T20:18:25.653Z,45.5
2023-03-02T20:23:44.399Z,45.3
2023-03-02T20:29:02.686Z,44.8
2023-03-02T20:34:20.860Z,45.6
2023-03-02T20:39:39.130Z,44.9
2023-03-02T20:44:57.775Z,45.4
2023-03-02T20:50:16.472Z,45.9
2023-03-02T20:55:35.904Z,45.8
2023-03-02T21:00:54.203Z,45.1
2023-03-02T21:06:12.122Z,46
2023-03-02T21:11:30.993Z,46.1
2023-03-02T21:16:49.338Z,46.3
2023-03-02T21:22:08.096Z,46.2
2023-03-02T21:27:26.285Z,46.3
2023-03-02T21:32:44.935Z,45.9
2023-03-02T21:38:03.338Z,46.5
2023-03-02T21:43:21.940Z,45.9
2023-03-02T21:48:40.692Z,46.4
2023-03-02T21:53:59.203Z,46
2023-03-02T21:59:17.708Z,46.1
2023-03-02T22:04:36.627Z,46.2
2023-03-02T22:09:55.293Z,46.8
2023-03-02T22:15:13.213Z,46.1
2023-03-02T22:20:31.206Z,46.4
2023-03-02T22:25:49.653Z,46.6
2023-03-02T22:31:08.241Z,46.2
2023-03-02T22:36:26.478Z,46.8
2023-03-02T22:41:47.807Z,46
2023-03-02T22:47:05.985Z,46.6
2023-03-02T22:52:24.565Z,45.9
2023-03-02T22:57:42.803Z,45.9
2023-03-02T23:03:01.686Z,46.7
2023-03-02T23:08:19.964Z,46.7
2023-03-02T23:13:38.459Z,47
2023-03-02T23:18:57.250Z,46.8
2023-03-02T23:24:15.775Z,46.5
2023-03-02T23:29:34.244Z,47
2023-03-02T23:34:52.195Z,46.3
2023-03-02T23:40:10.725Z,46.3
2023-03-02T23:45:29.471Z,46.5
2023-03-02T23:50:47.953Z,46.7
2023-03-02T23:56:06.532Z,47.5
